Wednesday, September 20, 2017, 9:33 PM EDT

KFDK, Frederick, Frederick Municipal Airport

Location: Frederick, MD, United States Lat: 39.417
Local Time: 9:33 PM EDT ( 1:33 GMT) Lon: -77.374
Time Zone: US/Eastern Elev: 301 ft

Show me the last for .
Show Decoded

2017-09-20 21:05 METAR KFDK 210105Z AUTO 00000KT 10SM CLR 19/19 A3000 RMK AO2 =
2017-09-20 19:55 METAR KFDK 202355Z 00000KT 10SM SKC 22/17 A2999 =
2017-09-20 18:50 METAR KFDK 202250Z 00000KT 10SM SKC 28/13 A2998 =
2017-09-20 17:50 METAR KFDK 202150Z 35006KT 10SM SKC 31/12 A2997 =
2017-09-20 16:48 METAR KFDK 202048Z 34006KT 10SM SKC 31/13 A2996 =
2017-09-20 15:50 METAR KFDK 201950Z 33007KT 10SM SKC 32/13 A2997 =
2017-09-20 14:50 METAR KFDK 201850Z 01008KT 10SM SKC 31/13 A2997 =
2017-09-20 13:50 METAR KFDK 201750Z 36008KT 10SM SKC 31/08 A2998 =
2017-09-20 12:50 METAR KFDK 201650Z 36008KT 10SM SKC 31/09 A2999 =
2017-09-20 11:47 METAR KFDK 201547Z 36004KT 10SM SKC 29/14 A3001 =
2017-09-20 10:47 METAR KFDK 201447Z 00000KT 10SM SKC 28/16 A3002 =
2017-09-20 09:47 METAR KFDK 201347Z 00000KT 10SM SKC 24/19 A3003 =
2017-09-20 08:55 METAR KFDK 201255Z 00000KT 10SM SKC 22/21 A3002 =
2017-09-20 07:47 METAR KFDK 201147Z 00000KT 10SM SKC 18/18 A3000 =
2017-09-20 06:50 METAR KFDK 201050Z AUTO 00000KT 4SM BR CLR 16/16 A2998 RMK AO2 =
2017-09-20 06:47 METAR KFDK 201047Z 00000KT 10SM BCFG SKC 17/17 A2998 =
2017-09-20 06:45 METAR KFDK 201045Z AUTO 00000KT 7SM CLR 16/16 A2997 RMK AO2 =
2017-09-20 06:25 METAR KFDK 201025Z AUTO 00000KT 1 1/4SM BR VV007 17/17 A2997 RMK AO2 VIS 1/2V5 =
2017-09-20 06:05 METAR KFDK 201005Z AUTO 09003KT 3SM BR SCT110 17/17 A2997 RMK AO2 =
2017-09-20 05:45 METAR KFDK 200945Z AUTO 00000KT 1 3/4SM BR SCT110 17/17 A2997 RMK AO2 =
2017-09-20 05:25 METAR KFDK 200925Z AUTO 00000KT 5SM BR CLR 17/17 A2996 RMK AO2 =
2017-09-20 05:05 METAR KFDK 200905Z AUTO 00000KT 2 1/2SM BR SCT100 17/17 A2996 RMK AO2 =
2017-09-20 04:45 METAR KFDK 200845Z AUTO 00000KT 5SM BR SCT120 17/17 A2997 RMK AO2 =
2017-09-20 04:25 METAR KFDK 200825Z AUTO 00000KT 5SM BR SCT100 BKN120 17/17 A2997 RMK AO2 =
2017-09-20 04:05 METAR KFDK 200805Z AUTO 00000KT 5SM BR OVC100 17/17 A2997 RMK AO2 =
2017-09-20 03:45 METAR KFDK 200745Z AUTO 00000KT 5SM BR BKN100 17/17 A2997 RMK AO2 =
2017-09-20 03:25 METAR KFDK 200725Z AUTO 00000KT 4SM BR SCT110 17/17 A2997 RMK AO2 =
2017-09-20 03:05 METAR KFDK 200705Z AUTO 00000KT 5SM BR SCT095 17/17 A2997 RMK AO2 =
2017-09-20 02:45 METAR KFDK 200645Z AUTO 10003KT 1 1/2SM BR VV007 17/17 A2997 RMK AO2 =
2017-09-20 02:25 METAR KFDK 200625Z AUTO 00000KT 2SM BR CLR 17/17 A2997 RMK AO2 VIS 3/4V5 =
2017-09-20 02:05 METAR KFDK 200605Z AUTO 00000KT 2 1/2SM BR CLR 17/17 A2997 RMK AO2 =
2017-09-20 01:45 METAR KFDK 200545Z AUTO 00000KT 10SM CLR 18/18 A2997 RMK AO2 =
2017-09-20 01:25 METAR KFDK 200525Z AUTO 00000KT 1/2SM FG VV005 17/17 A2997 RMK AO2 =
2017-09-20 01:05 METAR KFDK 200505Z AUTO 00000KT 5SM BR CLR 18/18 A2996 RMK AO2 =
2017-09-20 00:45 METAR KFDK 200445Z AUTO 00000KT 7SM CLR 18/18 A2996 RMK AO2 =
2017-09-20 00:25 METAR KFDK 200425Z AUTO 00000KT 2SM BR CLR 18/18 A2996 RMK AO2 =
2017-09-20 00:05 METAR KFDK 200405Z AUTO 00000KT 1 3/4SM BR VV007 18/18 A2997 RMK AO2 =
2017-09-19 23:45 METAR KFDK 200345Z AUTO 00000KT 7SM CLR 18/18 A2997 RMK AO2 =
2017-09-19 23:25 METAR KFDK 200325Z AUTO 00000KT 5SM BR CLR 18/18 A2997 RMK AO2 =
2017-09-19 23:05 METAR KFDK 200305Z AUTO 00000KT 7SM CLR 19/19 A2997 RMK AO2 =
2017-09-19 22:45 METAR KFDK 200245Z AUTO 00000KT 5SM BR CLR 18/18 A2998 RMK AO2 =
2017-09-19 22:25 METAR KFDK 200225Z AUTO 00000KT 10SM CLR 19/19 A2998 RMK AO2 =
2017-09-19 22:05 METAR KFDK 200205Z AUTO 00000KT 5SM BR CLR 18/18 A2998 RMK AO2 =
2017-09-19 21:45 METAR KFDK 200145Z AUTO 00000KT 10SM CLR 19/19 A2997 RMK AO2 =

Support USWX by starting your Amazon purchase here.